Decoded Metar for LYVR (VRSAC in SERBIA) (IATA:N/A) | Meteo·Mobile Aviation Weather
aviador You're here:

LYVR Decoded Metar

VRSAC in SERBIA
Report Time2018-12-15 15:30:00
UTC Time2018-12-15 15:36:14
Flight Rules lifr LIFR
Wind170° at 05 kt
W.Decomp.*RWY 16: 5.0 kt HW 0.6 kt RCW
RWY 19: 4.6 kt HW 2 kt LCW
W.Rank170° ranks 6
Current wind is below 170° avg. (6.3)
Visibility2500 m
Phenomena:Snow
Clouds:Broken 003 Hf
Overcast 026 Hf
Ceiling300 ft
Temp00°C (ISA -14)
Dew Point00°C (100% RH)
AAT-3.8°C
QNH1018 hPa
Density Alt-1,572 ft
Elevation279 ft
Report Wrong Elevation
Raw Report
METAR LYVR 151530Z 17005KT 2500 SN BKN003 OVC026 00/M00 Q1018
R01/////// NOSIG=

Extra information for LYVR:More info

Metar Taf Metar & Taf Last 4 Metars F.Rules Stats Wind Profile Meteogram Temp Stats Airport Information Weather charts Add Link Nearby VenuesMetar ALERT Operation Metar Decoded Social comments